sensor_id;sensor_type;location;lat;lon;timestamp;temperature;humidity
674;DHT22;319;48.764;9.174;2023-06-04T00:00:37;18.50;76.30
674;DHT22;319;48.764;9.174;2023-06-04T00:03:05;18.50;76.90
674;DHT22;319;48.764;9.174;2023-06-04T00:05:32;18.50;77.90
674;DHT22;319;48.764;9.174;2023-06-04T00:07:59;18.40;79.00
674;DHT22;319;48.764;9.174;2023-06-04T00:10:26;18.40;79.70
674;DHT22;319;48.764;9.174;2023-06-04T00:12:52;18.40;80.40
674;DHT22;319;48.764;9.174;2023-06-04T00:15:19;18.40;81.20
674;DHT22;319;48.764;9.174;2023-06-04T00:17:46;18.30;81.50
674;DHT22;319;48.764;9.174;2023-06-04T00:20:14;18.30;81.90
674;DHT22;319;48.764;9.174;2023-06-04T00:22:41;18.20;81.80
674;DHT22;319;48.764;9.174;2023-06-04T00:25:08;18.20;82.00
674;DHT22;319;48.764;9.174;2023-06-04T00:27:35;18.20;80.60
674;DHT22;319;48.764;9.174;2023-06-04T00:30:02;18.10;80.00
674;DHT22;319;48.764;9.174;2023-06-04T00:32:33;18.10;79.70
674;DHT22;319;48.764;9.174;2023-06-04T00:35:00;18.10;80.00
674;DHT22;319;48.764;9.174;2023-06-04T00:37:28;18.10;80.20
674;DHT22;319;48.764;9.174;2023-06-04T00:39:56;18.00;80.10
674;DHT22;319;48.764;9.174;2023-06-04T00:42:22;18.00;80.70
674;DHT22;319;48.764;9.174;2023-06-04T00:44:49;18.00;81.30
674;DHT22;319;48.764;9.174;2023-06-04T00:47:18;17.90;81.30
674;DHT22;319;48.764;9.174;2023-06-04T00:49:46;17.90;81.20
674;DHT22;319;48.764;9.174;2023-06-04T00:52:14;17.90;80.80
674;DHT22;319;48.764;9.174;2023-06-04T00:54:43;17.90;81.10
674;DHT22;319;48.764;9.174;2023-06-04T00:57:10;17.80;81.50
674;DHT22;319;48.764;9.174;2023-06-04T00:59:39;17.80;81.80
674;DHT22;319;48.764;9.174;2023-06-04T01:02:11;17.70;82.30
674;DHT22;319;48.764;9.174;2023-06-04T01:04:45;17.70;82.80
674;DHT22;319;48.764;9.174;2023-06-04T01:07:14;17.60;82.60
674;DHT22;319;48.764;9.174;2023-06-04T01:09:44;17.60;82.70
674;DHT22;319;48.764;9.174;2023-06-04T01:12:12;17.60;82.80
674;DHT22;319;48.764;9.174;2023-06-04T01:14:39;17.60;83.10
674;DHT22;319;48.764;9.174;2023-06-04T01:17:13;17.50;83.10
674;DHT22;319;48.764;9.174;2023-06-04T01:20:20;17.50;83.80
674;DHT22;319;48.764;9.174;2023-06-04T01:23:09;17.50;84.00
674;DHT22;319;48.764;9.174;2023-06-04T01:25:42;17.50;84.70
674;DHT22;319;48.764;9.174;2023-06-04T01:28:12;17.50;84.30
674;DHT22;319;48.764;9.174;2023-06-04T01:30:43;17.50;85.70
674;DHT22;319;48.764;9.174;2023-06-04T01:33:12;17.50;85.80
674;DHT22;319;48.764;9.174;2023-06-04T01:35:39;17.50;85.60
674;DHT22;319;48.764;9.174;2023-06-04T01:38:06;17.50;85.80
674;DHT22;319;48.764;9.174;2023-06-04T01:40:33;17.40;85.30
674;DHT22;319;48.764;9.174;2023-06-04T01:43:02;17.40;85.40
674;DHT22;319;48.764;9.174;2023-06-04T01:45:29;17.30;85.00
674;DHT22;319;48.764;9.174;2023-06-04T01:47:56;17.30;85.30
674;DHT22;319;48.764;9.174;2023-06-04T01:50:23;17.20;84.90
674;DHT22;319;48.764;9.174;2023-06-04T01:52:50;17.30;84.90
674;DHT22;319;48.764;9.174;2023-06-04T01:55:17;17.20;83.90
674;DHT22;319;48.764;9.174;2023-06-04T01:57:45;17.20;83.40
674;DHT22;319;48.764;9.174;2023-06-04T02:00:14;17.20;83.90
674;DHT22;319;48.764;9.174;2023-06-04T02:02:43;17.10;83.70
674;DHT22;319;48.764;9.174;2023-06-04T02:05:11;17.10;83.10
674;DHT22;319;48.764;9.174;2023-06-04T02:07:40;17.10;83.20
674;DHT22;319;48.764;9.174;2023-06-04T02:10:09;17.10;84.50
674;DHT22;319;48.764;9.174;2023-06-04T02:12:37;17.10;87.90
674;DHT22;319;48.764;9.174;2023-06-04T02:15:06;17.00;88.80
674;DHT22;319;48.764;9.174;2023-06-04T02:17:34;17.00;89.70
674;DHT22;319;48.764;9.174;2023-06-04T02:20:04;17.00;90.30
674;DHT22;319;48.764;9.174;2023-06-04T02:22:35;16.90;90.30
674;DHT22;319;48.764;9.174;2023-06-04T02:25:02;16.80;90.80
674;DHT22;319;48.764;9.174;2023-06-04T02:27:29;16.80;90.00
674;DHT22;319;48.764;9.174;2023-06-04T02:29:56;16.70;85.50
674;DHT22;319;48.764;9.174;2023-06-04T02:32:23;16.60;83.70
674;DHT22;319;48.764;9.174;2023-06-04T02:34:51;16.60;83.40
674;DHT22;319;48.764;9.174;2023-06-04T02:37:18;16.50;83.60
674;DHT22;319;48.764;9.174;2023-06-04T02:39:45;16.50;83.90
674;DHT22;319;48.764;9.174;2023-06-04T02:42:12;16.60;84.30
674;DHT22;319;48.764;9.174;2023-06-04T02:44:39;16.60;84.00
674;DHT22;319;48.764;9.174;2023-06-04T02:47:06;16.50;83.30
674;DHT22;319;48.764;9.174;2023-06-04T02:49:33;16.60;83.70
674;DHT22;319;48.764;9.174;2023-06-04T02:52:01;16.50;84.00
674;DHT22;319;48.764;9.174;2023-06-04T02:54:28;16.40;84.30
674;DHT22;319;48.764;9.174;2023-06-04T02:56:55;16.50;84.00
674;DHT22;319;48.764;9.174;2023-06-04T02:59:22;16.50;84.00
674;DHT22;319;48.764;9.174;2023-06-04T03:01:49;16.40;83.10
674;DHT22;319;48.764;9.174;2023-06-04T03:04:15;16.40;83.30
674;DHT22;319;48.764;9.174;2023-06-04T03:06:43;16.40;83.80
674;DHT22;319;48.764;9.174;2023-06-04T03:09:13;16.40;83.20
674;DHT22;319;48.764;9.174;2023-06-04T03:11:40;16.30;84.20
674;DHT22;319;48.764;9.174;2023-06-04T03:14:07;16.30;85.00
674;DHT22;319;48.764;9.174;2023-06-04T03:16:34;16.30;84.90
674;DHT22;319;48.764;9.174;2023-06-04T03:19:05;16.40;85.30
674;DHT22;319;48.764;9.174;2023-06-04T03:21:32;16.40;85.80
674;DHT22;319;48.764;9.174;2023-06-04T03:23:59;16.30;85.70
674;DHT22;319;48.764;9.174;2023-06-04T03:26:27;16.30;86.20
674;DHT22;319;48.764;9.174;2023-06-04T03:28:54;16.30;86.80
674;DHT22;319;48.764;9.174;2023-06-04T03:31:20;16.20;86.50
674;DHT22;319;48.764;9.174;2023-06-04T03:33:47;16.20;86.60
674;DHT22;319;48.764;9.174;2023-06-04T03:36:14;16.10;86.90
674;DHT22;319;48.764;9.174;2023-06-04T03:38:42;16.20;86.10
674;DHT22;319;48.764;9.174;2023-06-04T03:41:11;16.20;85.70
674;DHT22;319;48.764;9.174;2023-06-04T03:43:39;16.20;85.60
674;DHT22;319;48.764;9.174;2023-06-04T03:46:06;16.30;85.70
674;DHT22;319;48.764;9.174;2023-06-04T03:48:33;16.30;88.40
674;DHT22;319;48.764;9.174;2023-06-04T03:51:00;16.30;89.50
674;DHT22;319;48.764;9.174;2023-06-04T03:53:27;16.30;90.10
674;DHT22;319;48.764;9.174;2023-06-04T03:55:54;16.40;89.00
674;DHT22;319;48.764;9.174;2023-06-04T03:58:21;16.40;88.00
674;DHT22;319;48.764;9.174;2023-06-04T04:00:49;16.40;87.10
674;DHT22;319;48.764;9.174;2023-06-04T04:03:17;16.40;86.60
674;DHT22;319;48.764;9.174;2023-06-04T04:05:43;16.40;86.50
674;DHT22;319;48.764;9.174;2023-06-04T04:08:10;16.50;86.00
674;DHT22;319;48.764;9.174;2023-06-04T04:10:37;16.50;85.60
674;DHT22;319;48.764;9.174;2023-06-04T04:13:04;16.60;85.90
674;DHT22;319;48.764;9.174;2023-06-04T04:15:31;16.50;85.30
674;DHT22;319;48.764;9.174;2023-06-04T04:17:59;16.50;85.00
674;DHT22;319;48.764;9.174;2023-06-04T04:20:26;16.60;84.70
674;DHT22;319;48.764;9.174;2023-06-04T04:22:53;16.60;84.70
674;DHT22;319;48.764;9.174;2023-06-04T04:25:20;16.60;84.60
674;DHT22;319;48.764;9.174;2023-06-04T04:27:47;16.70;84.20
674;DHT22;319;48.764;9.174;2023-06-04T04:30:14;16.70;85.00
674;DHT22;319;48.764;9.174;2023-06-04T04:32:42;16.80;84.50
674;DHT22;319;48.764;9.174;2023-06-04T04:35:15;16.90;83.50
674;DHT22;319;48.764;9.174;2023-06-04T04:37:43;17.10;83.00
674;DHT22;319;48.764;9.174;2023-06-04T04:40:10;17.30;82.40
674;DHT22;319;48.764;9.174;2023-06-04T04:42:39;17.80;81.60
674;DHT22;319;48.764;9.174;2023-06-04T04:45:08;18.20;79.20
674;DHT22;319;48.764;9.174;2023-06-04T04:47:35;18.30;79.00
674;DHT22;319;48.764;9.174;2023-06-04T04:50:02;18.70;76.10
674;DHT22;319;48.764;9.174;2023-06-04T04:52:30;19.20;71.70
674;DHT22;319;48.764;9.174;2023-06-04T04:54:57;19.20;68.90
674;DHT22;319;48.764;9.174;2023-06-04T04:57:24;19.20;68.60
674;DHT22;319;48.764;9.174;2023-06-04T04:59:51;19.10;68.50
674;DHT22;319;48.764;9.174;2023-06-04T05:02:17;19.10;68.80
674;DHT22;319;48.764;9.174;2023-06-04T05:04:44;19.10;69.30
674;DHT22;319;48.764;9.174;2023-06-04T05:07:11;18.90;69.10
674;DHT22;319;48.764;9.174;2023-06-04T05:09:40;18.80;69.20
674;DHT22;319;48.764;9.174;2023-06-04T05:12:07;18.70;70.80
674;DHT22;319;48.764;9.174;2023-06-04T05:14:34;18.50;72.10
674;DHT22;319;48.764;9.174;2023-06-04T05:17:02;18.50;71.10
674;DHT22;319;48.764;9.174;2023-06-04T05:19:29;18.40;70.80
674;DHT22;319;48.764;9.174;2023-06-04T05:21:58;18.30;72.20
674;DHT22;319;48.764;9.174;2023-06-04T05:24:26;18.40;73.00
674;DHT22;319;48.764;9.174;2023-06-04T05:26:55;18.50;72.80
674;DHT22;319;48.764;9.174;2023-06-04T05:29:23;18.50;72.30
674;DHT22;319;48.764;9.174;2023-06-04T05:31:50;18.60;72.70
674;DHT22;319;48.764;9.174;2023-06-04T05:34:17;18.70;72.40
674;DHT22;319;48.764;9.174;2023-06-04T05:36:44;18.70;72.20
674;DHT22;319;48.764;9.174;2023-06-04T05:39:11;18.80;71.20
674;DHT22;319;48.764;9.174;2023-06-04T05:41:38;18.80;70.20
674;DHT22;319;48.764;9.174;2023-06-04T05:44:07;18.80;69.20
674;DHT22;319;48.764;9.174;2023-06-04T05:46:34;18.80;70.10
674;DHT22;319;48.764;9.174;2023-06-04T05:49:02;18.80;70.90
674;DHT22;319;48.764;9.174;2023-06-04T05:51:29;18.90;70.50
674;DHT22;319;48.764;9.174;2023-06-04T05:53:56;18.80;70.20
674;DHT22;319;48.764;9.174;2023-06-04T05:56:23;18.90;70.20
674;DHT22;319;48.764;9.174;2023-06-04T05:58:52;19.00;68.50
674;DHT22;319;48.764;9.174;2023-06-04T06:01:20;19.10;69.60
674;DHT22;319;48.764;9.174;2023-06-04T06:03:47;19.10;68.10
674;DHT22;319;48.764;9.174;2023-06-04T06:06:14;19.30;67.50
674;DHT22;319;48.764;9.174;2023-06-04T06:08:41;19.70;65.60
674;DHT22;319;48.764;9.174;2023-06-04T06:11:08;20.20;63.50
674;DHT22;319;48.764;9.174;2023-06-04T06:13:35;21.10;60.90
674;DHT22;319;48.764;9.174;2023-06-04T06:16:02;22.10;58.20
674;DHT22;319;48.764;9.174;2023-06-04T06:18:31;23.20;56.70
674;DHT22;319;48.764;9.174;2023-06-04T06:20:58;24.40;53.90
674;DHT22;319;48.764;9.174;2023-06-04T06:23:25;25.50;50.70
674;DHT22;319;48.764;9.174;2023-06-04T06:25:52;26.60;48.80
674;DHT22;319;48.764;9.174;2023-06-04T06:28:19;27.90;46.40
674;DHT22;319;48.764;9.174;2023-06-04T06:30:45;28.90;44.60
674;DHT22;319;48.764;9.174;2023-06-04T06:33:13;29.20;42.00
674;DHT22;319;48.764;9.174;2023-06-04T06:35:41;30.10;40.30
674;DHT22;319;48.764;9.174;2023-06-04T06:38:11;30.60;38.20
674;DHT22;319;48.764;9.174;2023-06-04T06:40:40;31.10;37.60
674;DHT22;319;48.764;9.174;2023-06-04T06:43:07;31.60;36.40
674;DHT22;319;48.764;9.174;2023-06-04T06:45:35;32.10;34.60
674;DHT22;319;48.764;9.174;2023-06-04T06:48:02;32.50;33.90
674;DHT22;319;48.764;9.174;2023-06-04T06:50:29;32.60;33.10
674;DHT22;319;48.764;9.174;2023-06-04T06:52:57;32.60;32.80
674;DHT22;319;48.764;9.174;2023-06-04T06:55:24;33.00;32.40
674;DHT22;319;48.764;9.174;2023-06-04T06:57:51;33.30;31.90
674;DHT22;319;48.764;9.174;2023-06-04T07:00:18;33.70;30.90
674;DHT22;319;48.764;9.174;2023-06-04T07:02:45;33.70;31.20
674;DHT22;319;48.764;9.174;2023-06-04T07:05:12;33.70;31.00
674;DHT22;319;48.764;9.174;2023-06-04T07:07:41;33.30;30.20
674;DHT22;319;48.764;9.174;2023-06-04T07:10:10;33.50;30.30
674;DHT22;319;48.764;9.174;2023-06-04T07:12:37;33.30;30.20
674;DHT22;319;48.764;9.174;2023-06-04T07:15:05;32.40;31.10
674;DHT22;319;48.764;9.174;2023-06-04T07:17:32;31.60;31.80
674;DHT22;319;48.764;9.174;2023-06-04T07:19:59;30.60;32.90
674;DHT22;319;48.764;9.174;2023-06-04T07:22:26;29.50;34.40
674;DHT22;319;48.764;9.174;2023-06-04T07:24:53;28.80;35.90
674;DHT22;319;48.764;9.174;2023-06-04T07:27:21;29.00;36.70
674;DHT22;319;48.764;9.174;2023-06-04T07:29:48;29.50;36.10
674;DHT22;319;48.764;9.174;2023-06-04T07:32:16;29.50;35.80
674;DHT22;319;48.764;9.174;2023-06-04T07:34:42;29.70;36.10
674;DHT22;319;48.764;9.174;2023-06-04T07:37:09;30.40;35.60
674;DHT22;319;48.764;9.174;2023-06-04T07:39:38;30.80;34.90
674;DHT22;319;48.764;9.174;2023-06-04T07:42:05;31.20;35.40
674;DHT22;319;48.764;9.174;2023-06-04T07:44:36;31.20;34.50
674;DHT22;319;48.764;9.174;2023-06-04T07:47:03;31.80;33.40
674;DHT22;319;48.764;9.174;2023-06-04T07:49:30;32.30;32.90
674;DHT22;319;48.764;9.174;2023-06-04T07:51:57;32.80;31.90
674;DHT22;319;48.764;9.174;2023-06-04T07:54:24;33.10;31.70
674;DHT22;319;48.764;9.174;2023-06-04T07:56:51;33.60;31.10
674;DHT22;319;48.764;9.174;2023-06-04T07:59:23;33.50;30.80
674;DHT22;319;48.764;9.174;2023-06-04T08:01:51;34.00;30.70
674;DHT22;319;48.764;9.174;2023-06-04T08:04:18;33.60;30.80
674;DHT22;319;48.764;9.174;2023-06-04T08:06:45;33.50;31.10
674;DHT22;319;48.764;9.174;2023-06-04T08:09:12;33.70;30.80
674;DHT22;319;48.764;9.174;2023-06-04T08:11:40;33.70;30.70
674;DHT22;319;48.764;9.174;2023-06-04T08:14:07;33.80;30.50
674;DHT22;319;48.764;9.174;2023-06-04T08:16:34;33.80;30.70
674;DHT22;319;48.764;9.174;2023-06-04T08:19:02;34.30;30.20
674;DHT22;319;48.764;9.174;2023-06-04T08:21:29;34.70;29.90
674;DHT22;319;48.764;9.174;2023-06-04T08:23:56;34.70;30.00
674;DHT22;319;48.764;9.174;2023-06-04T08:26:24;34.40;29.90
674;DHT22;319;48.764;9.174;2023-06-04T08:28:52;34.30;30.10
674;DHT22;319;48.764;9.174;2023-06-04T08:31:20;34.10;30.20
674;DHT22;319;48.764;9.174;2023-06-04T08:33:47;33.70;30.60
674;DHT22;319;48.764;9.174;2023-06-04T08:36:15;33.40;31.30
674;DHT22;319;48.764;9.174;2023-06-04T08:38:42;33.60;30.70
674;DHT22;319;48.764;9.174;2023-06-04T08:41:13;33.50;31.20
674;DHT22;319;48.764;9.174;2023-06-04T08:43:42;33.90;30.80
674;DHT22;319;48.764;9.174;2023-06-04T08:46:11;33.40;30.30
674;DHT22;319;48.764;9.174;2023-06-04T08:48:38;33.00;31.00
674;DHT22;319;48.764;9.174;2023-06-04T08:51:06;32.60;31.30
674;DHT22;319;48.764;9.174;2023-06-04T08:53:36;32.60;31.90
674;DHT22;319;48.764;9.174;2023-06-04T08:56:06;32.40;31.80
674;DHT22;319;48.764;9.174;2023-06-04T08:58:35;32.30;32.20
674;DHT22;319;48.764;9.174;2023-06-04T09:01:02;32.40;31.80
674;DHT22;319;48.764;9.174;2023-06-04T09:03:29;32.00;32.00
674;DHT22;319;48.764;9.174;2023-06-04T09:05:58;31.90;32.50
674;DHT22;319;48.764;9.174;2023-06-04T09:08:27;31.20;33.30
674;DHT22;319;48.764;9.174;2023-06-04T09:10:58;30.90;34.80
674;DHT22;319;48.764;9.174;2023-06-04T09:13:30;31.20;34.50
674;DHT22;319;48.764;9.174;2023-06-04T09:16:00;31.80;33.60
674;DHT22;319;48.764;9.174;2023-06-04T09:18:27;32.20;32.60
674;DHT22;319;48.764;9.174;2023-06-04T09:21:01;32.20;33.20
674;DHT22;319;48.764;9.174;2023-06-04T09:23:28;32.00;33.00
674;DHT22;319;48.764;9.174;2023-06-04T09:25:57;31.70;33.80
674;DHT22;319;48.764;9.174;2023-06-04T09:28:32;31.30;34.40
674;DHT22;319;48.764;9.174;2023-06-04T09:30:58;30.00;35.60
674;DHT22;319;48.764;9.174;2023-06-04T09:33:25;29.00;37.40
674;DHT22;319;48.764;9.174;2023-06-04T09:35:53;28.20;38.00
674;DHT22;319;48.764;9.174;2023-06-04T09:38:21;27.80;38.60
674;DHT22;319;48.764;9.174;2023-06-04T09:40:48;27.40;39.80
674;DHT22;319;48.764;9.174;2023-06-04T09:43:22;27.10;40.10
674;DHT22;319;48.764;9.174;2023-06-04T09:45:50;26.80;41.00
674;DHT22;319;48.764;9.174;2023-06-04T09:48:20;26.50;40.60
674;DHT22;319;48.764;9.174;2023-06-04T09:50:48;26.50;41.10
674;DHT22;319;48.764;9.174;2023-06-04T09:53:15;26.40;40.90
674;DHT22;319;48.764;9.174;2023-06-04T09:55:42;26.20;40.70
674;DHT22;319;48.764;9.174;2023-06-04T09:58:11;26.10;41.90
674;DHT22;319;48.764;9.174;2023-06-04T10:00:40;26.10;41.30
674;DHT22;319;48.764;9.174;2023-06-04T10:03:10;26.00;41.30
674;DHT22;319;48.764;9.174;2023-06-04T10:05:40;26.00;42.00
674;DHT22;319;48.764;9.174;2023-06-04T10:08:09;26.20;41.60
674;DHT22;319;48.764;9.174;2023-06-04T10:10:40;26.10;41.00
674;DHT22;319;48.764;9.174;2023-06-04T10:13:12;26.00;41.40
674;DHT22;319;48.764;9.174;2023-06-04T10:15:42;26.00;41.30
674;DHT22;319;48.764;9.174;2023-06-04T10:18:10;25.90;41.20
674;DHT22;319;48.764;9.174;2023-06-04T10:20:37;25.70;41.80
674;DHT22;319;48.764;9.174;2023-06-04T10:23:05;25.70;41.90
674;DHT22;319;48.764;9.174;2023-06-04T10:25:34;25.90;41.70
674;DHT22;319;48.764;9.174;2023-06-04T10:28:02;26.10;41.50
674;DHT22;319;48.764;9.174;2023-06-04T10:30:30;26.20;40.90
674;DHT22;319;48.764;9.174;2023-06-04T10:32:58;26.40;40.60
674;DHT22;319;48.764;9.174;2023-06-04T10:35:32;26.30;40.30
674;DHT22;319;48.764;9.174;2023-06-04T10:38:06;26.40;40.70
674;DHT22;319;48.764;9.174;2023-06-04T10:40:34;26.50;40.60
674;DHT22;319;48.764;9.174;2023-06-04T10:43:05;26.30;40.90
674;DHT22;319;48.764;9.174;2023-06-04T10:45:32;26.20;41.10
674;DHT22;319;48.764;9.174;2023-06-04T10:48:04;26.20;41.10
674;DHT22;319;48.764;9.174;2023-06-04T10:50:32;26.10;41.20
674;DHT22;319;48.764;9.174;2023-06-04T10:52:59;26.20;41.10
674;DHT22;319;48.764;9.174;2023-06-04T10:55:29;26.20;41.50
674;DHT22;319;48.764;9.174;2023-06-04T10:57:57;26.30;41.50
674;DHT22;319;48.764;9.174;2023-06-04T11:00:34;26.40;41.60
674;DHT22;319;48.764;9.174;2023-06-04T11:03:04;26.60;41.10
674;DHT22;319;48.764;9.174;2023-06-04T11:05:35;26.60;41.40
674;DHT22;319;48.764;9.174;2023-06-04T11:08:03;26.80;41.00
674;DHT22;319;48.764;9.174;2023-06-04T11:10:32;26.80;40.80
674;DHT22;319;48.764;9.174;2023-06-04T11:13:00;26.90;41.00
674;DHT22;319;48.764;9.174;2023-06-04T11:15:27;26.90;40.80
674;DHT22;319;48.764;9.174;2023-06-04T11:18:05;26.70;41.20
674;DHT22;319;48.764;9.174;2023-06-04T11:20:32;26.30;41.20
674;DHT22;319;48.764;9.174;2023-06-04T11:22:59;26.20;41.80
674;DHT22;319;48.764;9.174;2023-06-04T11:25:29;26.20;41.90
674;DHT22;319;48.764;9.174;2023-06-04T11:27:58;26.30;41.60
674;DHT22;319;48.764;9.174;2023-06-04T11:30:27;26.50;41.10
674;DHT22;319;48.764;9.174;2023-06-04T11:33:01;26.70;40.90
674;DHT22;319;48.764;9.174;2023-06-04T11:35:29;26.60;40.30
674;DHT22;319;48.764;9.174;2023-06-04T11:37:57;26.70;40.60
674;DHT22;319;48.764;9.174;2023-06-04T11:40:24;26.70;40.30
674;DHT22;319;48.764;9.174;2023-06-04T11:42:52;26.80;40.40
674;DHT22;319;48.764;9.174;2023-06-04T11:45:21;27.00;40.20
674;DHT22;319;48.764;9.174;2023-06-04T11:47:52;27.00;40.10
674;DHT22;319;48.764;9.174;2023-06-04T11:50:19;27.10;40.10
674;DHT22;319;48.764;9.174;2023-06-04T11:52:48;27.10;39.90
674;DHT22;319;48.764;9.174;2023-06-04T11:55:16;27.10;39.70
674;DHT22;319;48.764;9.174;2023-06-04T11:57:46;27.30;39.50
674;DHT22;319;48.764;9.174;2023-06-04T12:00:14;27.30;39.30
674;DHT22;319;48.764;9.174;2023-06-04T12:02:50;27.30;39.00
674;DHT22;319;48.764;9.174;2023-06-04T12:05:18;27.40;39.20
674;DHT22;319;48.764;9.174;2023-06-04T12:07:47;27.40;38.70
674;DHT22;319;48.764;9.174;2023-06-04T12:10:16;27.40;39.20
674;DHT22;319;48.764;9.174;2023-06-04T12:12:43;27.60;38.90
674;DHT22;319;48.764;9.174;2023-06-04T12:15:10;27.60;38.20
674;DHT22;319;48.764;9.174;2023-06-04T12:17:37;27.40;38.40
674;DHT22;319;48.764;9.174;2023-06-04T12:20:15;27.40;38.70
674;DHT22;319;48.764;9.174;2023-06-04T12:22:45;27.60;38.50
674;DHT22;319;48.764;9.174;2023-06-04T12:25:24;27.60;38.10
674;DHT22;319;48.764;9.174;2023-06-04T12:27:51;27.60;38.20
674;DHT22;319;48.764;9.174;2023-06-04T12:30:18;27.60;38.00
674;DHT22;319;48.764;9.174;2023-06-04T12:32:45;27.70;38.10
674;DHT22;319;48.764;9.174;2023-06-04T12:35:12;27.70;37.90
674;DHT22;319;48.764;9.174;2023-06-04T12:37:39;27.70;37.70
674;DHT22;319;48.764;9.174;2023-06-04T12:40:07;27.50;38.00
674;DHT22;319;48.764;9.174;2023-06-04T12:42:36;27.50;37.70
674;DHT22;319;48.764;9.174;2023-06-04T12:45:03;27.50;38.40
674;DHT22;319;48.764;9.174;2023-06-04T12:47:31;27.30;38.00
674;DHT22;319;48.764;9.174;2023-06-04T12:49:58;27.40;38.30
674;DHT22;319;48.764;9.174;2023-06-04T12:52:26;27.30;38.00
674;DHT22;319;48.764;9.174;2023-06-04T12:54:53;27.40;37.90
674;DHT22;319;48.764;9.174;2023-06-04T12:57:20;27.30;37.60
674;DHT22;319;48.764;9.174;2023-06-04T12:59:48;27.20;37.70
674;DHT22;319;48.764;9.174;2023-06-04T13:02:15;27.20;37.60
674;DHT22;319;48.764;9.174;2023-06-04T13:04:42;27.00;37.90
674;DHT22;319;48.764;9.174;2023-06-04T13:07:10;27.00;37.70
674;DHT22;319;48.764;9.174;2023-06-04T13:09:37;27.10;37.70
674;DHT22;319;48.764;9.174;2023-06-04T13:12:04;27.10;37.40
674;DHT22;319;48.764;9.174;2023-06-04T13:14:31;27.20;37.40
674;DHT22;319;48.764;9.174;2023-06-04T13:17:01;27.30;37.20
674;DHT22;319;48.764;9.174;2023-06-04T13:19:27;27.20;37.30
674;DHT22;319;48.764;9.174;2023-06-04T13:21:54;27.20;36.70
674;DHT22;319;48.764;9.174;2023-06-04T13:24:22;27.20;36.60
674;DHT22;319;48.764;9.174;2023-06-04T13:26:49;27.20;36.40
674;DHT22;319;48.764;9.174;2023-06-04T13:29:16;27.20;36.00
674;DHT22;319;48.764;9.174;2023-06-04T13:31:47;27.20;36.10
674;DHT22;319;48.764;9.174;2023-06-04T13:34:16;27.30;35.50
674;DHT22;319;48.764;9.174;2023-06-04T13:36:43;27.20;35.00
674;DHT22;319;48.764;9.174;2023-06-04T13:39:09;27.30;35.70
674;DHT22;319;48.764;9.174;2023-06-04T13:41:36;27.40;35.60
674;DHT22;319;48.764;9.174;2023-06-04T13:44:03;27.50;35.40
674;DHT22;319;48.764;9.174;2023-06-04T13:46:30;27.50;35.80
674;DHT22;319;48.764;9.174;2023-06-04T13:48:57;27.60;36.10
674;DHT22;319;48.764;9.174;2023-06-04T13:51:25;27.50;35.60
674;DHT22;319;48.764;9.174;2023-06-04T13:53:52;27.60;34.80
674;DHT22;319;48.764;9.174;2023-06-04T13:56:23;27.60;35.00
674;DHT22;319;48.764;9.174;2023-06-04T13:58:51;27.60;35.00
674;DHT22;319;48.764;9.174;2023-06-04T14:01:17;27.40;35.80
674;DHT22;319;48.764;9.174;2023-06-04T14:03:44;27.30;35.70
674;DHT22;319;48.764;9.174;2023-06-04T14:06:11;27.10;35.90
674;DHT22;319;48.764;9.174;2023-06-04T14:08:39;27.00;35.90
674;DHT22;319;48.764;9.174;2023-06-04T14:11:06;27.00;35.90
674;DHT22;319;48.764;9.174;2023-06-04T14:13:33;26.90;35.90
674;DHT22;319;48.764;9.174;2023-06-04T14:16:00;26.90;36.10
674;DHT22;319;48.764;9.174;2023-06-04T14:18:27;26.90;36.10
674;DHT22;319;48.764;9.174;2023-06-04T14:20:54;26.90;35.80
674;DHT22;319;48.764;9.174;2023-06-04T14:23:20;26.90;35.60
674;DHT22;319;48.764;9.174;2023-06-04T14:25:50;26.90;34.70
674;DHT22;319;48.764;9.174;2023-06-04T14:28:17;26.90;34.40
674;DHT22;319;48.764;9.174;2023-06-04T14:30:46;26.90;34.90
674;DHT22;319;48.764;9.174;2023-06-04T14:33:13;26.90;35.80
674;DHT22;319;48.764;9.174;2023-06-04T14:35:39;26.80;35.80
674;DHT22;319;48.764;9.174;2023-06-04T14:38:12;26.80;36.00
674;DHT22;319;48.764;9.174;2023-06-04T14:40:39;26.80;35.50
674;DHT22;319;48.764;9.174;2023-06-04T14:43:08;26.80;35.40
674;DHT22;319;48.764;9.174;2023-06-04T14:45:35;26.80;35.10
674;DHT22;319;48.764;9.174;2023-06-04T14:48:03;26.70;34.60
674;DHT22;319;48.764;9.174;2023-06-04T14:50:30;26.60;35.40
674;DHT22;319;48.764;9.174;2023-06-04T14:52:57;26.60;34.80
674;DHT22;319;48.764;9.174;2023-06-04T14:55:24;26.60;34.70
674;DHT22;319;48.764;9.174;2023-06-04T14:57:51;26.60;34.40
674;DHT22;319;48.764;9.174;2023-06-04T15:00:19;26.60;34.20
674;DHT22;319;48.764;9.174;2023-06-04T15:02:46;26.60;34.30
674;DHT22;319;48.764;9.174;2023-06-04T15:05:13;26.60;33.90
674;DHT22;319;48.764;9.174;2023-06-04T15:07:40;26.40;34.40
674;DHT22;319;48.764;9.174;2023-06-04T15:10:08;26.50;34.40
674;DHT22;319;48.764;9.174;2023-06-04T15:12:35;26.50;34.60
674;DHT22;319;48.764;9.174;2023-06-04T15:15:04;26.50;33.60
674;DHT22;319;48.764;9.174;2023-06-04T15:17:33;26.50;34.00
674;DHT22;319;48.764;9.174;2023-06-04T15:20:00;26.40;34.20
674;DHT22;319;48.764;9.174;2023-06-04T15:22:27;26.40;34.60
674;DHT22;319;48.764;9.174;2023-06-04T15:24:53;26.40;34.90
674;DHT22;319;48.764;9.174;2023-06-04T15:27:20;26.40;35.20
674;DHT22;319;48.764;9.174;2023-06-04T15:29:47;26.50;35.40
674;DHT22;319;48.764;9.174;2023-06-04T15:32:14;26.40;34.90
674;DHT22;319;48.764;9.174;2023-06-04T15:34:43;26.40;35.10
674;DHT22;319;48.764;9.174;2023-06-04T15:37:09;26.40;35.10
674;DHT22;319;48.764;9.174;2023-06-04T15:39:36;26.40;35.00
674;DHT22;319;48.764;9.174;2023-06-04T15:42:03;26.30;35.20
674;DHT22;319;48.764;9.174;2023-06-04T15:44:30;26.30;35.40
674;DHT22;319;48.764;9.174;2023-06-04T15:46:57;26.30;35.00
674;DHT22;319;48.764;9.174;2023-06-04T15:49:24;26.30;35.00
674;DHT22;319;48.764;9.174;2023-06-04T15:51:52;26.30;35.40
674;DHT22;319;48.764;9.174;2023-06-04T15:54:19;26.30;35.20
674;DHT22;319;48.764;9.174;2023-06-04T15:56:47;26.30;35.20
674;DHT22;319;48.764;9.174;2023-06-04T15:59:14;26.30;35.40
674;DHT22;319;48.764;9.174;2023-06-04T16:01:41;26.30;35.10
674;DHT22;319;48.764;9.174;2023-06-04T16:04:10;26.30;35.10
674;DHT22;319;48.764;9.174;2023-06-04T16:06:37;26.20;35.10
674;DHT22;319;48.764;9.174;2023-06-04T16:09:06;26.10;35.40
674;DHT22;319;48.764;9.174;2023-06-04T16:11:35;26.00;35.80
674;DHT22;319;48.764;9.174;2023-06-04T16:14:02;26.00;36.30
674;DHT22;319;48.764;9.174;2023-06-04T16:16:30;26.00;35.40
674;DHT22;319;48.764;9.174;2023-06-04T16:18:57;26.00;35.30
674;DHT22;319;48.764;9.174;2023-06-04T16:24:14;26.00;35.40
674;DHT22;319;48.764;9.174;2023-06-04T16:26:41;26.10;35.60
674;DHT22;319;48.764;9.174;2023-06-04T16:29:08;26.00;36.00
674;DHT22;319;48.764;9.174;2023-06-04T16:31:35;26.10;36.00
674;DHT22;319;48.764;9.174;2023-06-04T16:34:02;26.10;35.70
674;DHT22;319;48.764;9.174;2023-06-04T16:36:29;26.20;35.50
674;DHT22;319;48.764;9.174;2023-06-04T16:38:56;26.00;35.80
674;DHT22;319;48.764;9.174;2023-06-04T16:41:24;26.00;35.90